sensor_id;sensor_type;location;lat;lon;timestamp;temperature;humidity
19878;DHT22;10101;52.204;9.910;2023-02-18T00:01:24;7.40;1.00
19878;DHT22;10101;52.204;9.910;2023-02-18T00:03:51;7.30;1.00
19878;DHT22;10101;52.204;9.910;2023-02-18T00:06:20;7.30;1.00
19878;DHT22;10101;52.204;9.910;2023-02-18T00:08:47;7.30;1.00
19878;DHT22;10101;52.204;9.910;2023-02-18T00:11:15;7.40;1.00
19878;DHT22;10101;52.204;9.910;2023-02-18T00:13:48;7.30;1.00
19878;DHT22;10101;52.204;9.910;2023-02-18T00:16:15;7.30;1.00
19878;DHT22;10101;52.204;9.910;2023-02-18T00:18:42;7.30;1.00
19878;DHT22;10101;52.204;9.910;2023-02-18T00:21:09;7.30;1.00
19878;DHT22;10101;52.204;9.910;2023-02-18T00:23:35;7.30;1.00
19878;DHT22;10101;52.204;9.910;2023-02-18T00:26:04;7.30;1.00
19878;DHT22;10101;52.204;9.910;2023-02-18T00:28:32;7.30;1.00
19878;DHT22;10101;52.204;9.910;2023-02-18T00:31:05;7.30;1.00
19878;DHT22;10101;52.204;9.910;2023-02-18T00:33:32;7.30;1.00
19878;DHT22;10101;52.204;9.910;2023-02-18T00:36:01;7.20;1.00
19878;DHT22;10101;52.204;9.910;2023-02-18T00:38:28;7.30;1.00
19878;DHT22;10101;52.204;9.910;2023-02-18T00:40:54;7.30;1.00
19878;DHT22;10101;52.204;9.910;2023-02-18T00:43:21;7.20;1.00
19878;DHT22;10101;52.204;9.910;2023-02-18T00:45:48;7.30;1.00
19878;DHT22;10101;52.204;9.910;2023-02-18T00:48:16;7.30;1.00
19878;DHT22;10101;52.204;9.910;2023-02-18T00:50:43;7.40;1.00
19878;DHT22;10101;52.204;9.910;2023-02-18T00:53:10;7.40;1.00
19878;DHT22;10101;52.204;9.910;2023-02-18T00:55:38;7.50;1.00
19878;DHT22;10101;52.204;9.910;2023-02-18T00:58:05;7.40;1.00
19878;DHT22;10101;52.204;9.910;2023-02-18T01:00:32;7.50;1.00
19878;DHT22;10101;52.204;9.910;2023-02-18T01:02:58;7.40;1.00
19878;DHT22;10101;52.204;9.910;2023-02-18T01:05:27;7.30;1.00
19878;DHT22;10101;52.204;9.910;2023-02-18T01:07:53;7.30;99.90
19878;DHT22;10101;52.204;9.910;2023-02-18T01:10:20;7.30;1.00
19878;DHT22;10101;52.204;9.910;2023-02-18T01:12:47;7.20;1.00
19878;DHT22;10101;52.204;9.910;2023-02-18T01:15:16;7.10;1.00
19878;DHT22;10101;52.204;9.910;2023-02-18T01:17:43;7.20;1.00
19878;DHT22;10101;52.204;9.910;2023-02-18T01:20:11;7.30;1.00
19878;DHT22;10101;52.204;9.910;2023-02-18T01:22:40;7.30;1.00
19878;DHT22;10101;52.204;9.910;2023-02-18T01:25:07;7.50;1.00
19878;DHT22;10101;52.204;9.910;2023-02-18T01:27:34;7.50;1.00
19878;DHT22;10101;52.204;9.910;2023-02-18T01:30:02;7.50;1.00
19878;DHT22;10101;52.204;9.910;2023-02-18T01:32:29;7.60;1.00
19878;DHT22;10101;52.204;9.910;2023-02-18T01:34:56;7.70;1.00
19878;DHT22;10101;52.204;9.910;2023-02-18T01:37:23;7.70;1.00
19878;DHT22;10101;52.204;9.910;2023-02-18T01:39:51;7.60;1.00
19878;DHT22;10101;52.204;9.910;2023-02-18T01:42:20;7.50;1.00
19878;DHT22;10101;52.204;9.910;2023-02-18T01:44:48;7.60;1.00
19878;DHT22;10101;52.204;9.910;2023-02-18T01:47:15;7.60;7.90
19878;DHT22;10101;52.204;9.910;2023-02-18T01:49:43;7.60;69.50
19878;DHT22;10101;52.204;9.910;2023-02-18T01:52:14;7.70;99.90
19878;DHT22;10101;52.204;9.910;2023-02-18T01:54:44;7.60;99.90
19878;DHT22;10101;52.204;9.910;2023-02-18T01:57:14;7.60;99.90
19878;DHT22;10101;52.204;9.910;2023-02-18T01:59:45;7.70;99.90
19878;DHT22;10101;52.204;9.910;2023-02-18T02:02:16;7.80;99.90
19878;DHT22;10101;52.204;9.910;2023-02-18T02:04:44;7.80;99.90
19878;DHT22;10101;52.204;9.910;2023-02-18T02:07:11;7.80;99.90
19878;DHT22;10101;52.204;9.910;2023-02-18T02:09:38;7.60;1.00
19878;DHT22;10101;52.204;9.910;2023-02-18T02:12:35;7.40;1.00
19878;DHT22;10101;52.204;9.910;2023-02-18T02:15:17;7.30;95.10
19878;DHT22;10101;52.204;9.910;2023-02-18T02:17:55;7.30;99.90
19878;DHT22;10101;52.204;9.910;2023-02-18T02:21:01;7.30;1.00
19878;DHT22;10101;52.204;9.910;2023-02-18T02:26:51;7.30;1.00
19878;DHT22;10101;52.204;9.910;2023-02-18T02:29:54;7.20;99.90
19878;DHT22;10101;52.204;9.910;2023-02-18T02:32:41;7.20;1.00
19878;DHT22;10101;52.204;9.910;2023-02-18T02:35:14;7.20;1.00
19878;DHT22;10101;52.204;9.910;2023-02-18T02:37:47;7.30;1.00
19878;DHT22;10101;52.204;9.910;2023-02-18T02:40:20;7.30;99.90
19878;DHT22;10101;52.204;9.910;2023-02-18T02:42:58;7.30;1.00
19878;DHT22;10101;52.204;9.910;2023-02-18T02:45:36;7.30;1.00
19878;DHT22;10101;52.204;9.910;2023-02-18T02:48:08;7.20;99.90
19878;DHT22;10101;52.204;9.910;2023-02-18T02:50:43;7.20;99.90
19878;DHT22;10101;52.204;9.910;2023-02-18T02:53:14;7.10;99.90
19878;DHT22;10101;52.204;9.910;2023-02-18T02:55:42;7.00;99.90
19878;DHT22;10101;52.204;9.910;2023-02-18T02:58:13;7.00;99.90
19878;DHT22;10101;52.204;9.910;2023-02-18T03:00:51;7.10;99.90
19878;DHT22;10101;52.204;9.910;2023-02-18T03:03:42;7.10;99.90
19878;DHT22;10101;52.204;9.910;2023-02-18T03:06:35;7.10;99.90
19878;DHT22;10101;52.204;9.910;2023-02-18T03:09:12;7.20;99.90
19878;DHT22;10101;52.204;9.910;2023-02-18T03:11:49;7.20;99.90
19878;DHT22;10101;52.204;9.910;2023-02-18T03:14:23;7.20;99.90
19878;DHT22;10101;52.204;9.910;2023-02-18T03:16:57;7.50;99.90
19878;DHT22;10101;52.204;9.910;2023-02-18T03:19:30;7.20;99.90
19878;DHT22;10101;52.204;9.910;2023-02-18T03:22:03;7.30;99.90
19878;DHT22;10101;52.204;9.910;2023-02-18T03:24:33;7.30;99.90
19878;DHT22;10101;52.204;9.910;2023-02-18T03:27:07;7.30;99.90
19878;DHT22;10101;52.204;9.910;2023-02-18T03:29:35;7.30;99.90
19878;DHT22;10101;52.204;9.910;2023-02-18T03:32:05;7.20;99.90
19878;DHT22;10101;52.204;9.910;2023-02-18T03:34:35;7.20;99.90
19878;DHT22;10101;52.204;9.910;2023-02-18T03:37:05;7.30;99.90
19878;DHT22;10101;52.204;9.910;2023-02-18T03:39:34;7.30;99.90
19878;DHT22;10101;52.204;9.910;2023-02-18T03:42:01;7.30;99.90
19878;DHT22;10101;52.204;9.910;2023-02-18T03:44:29;7.30;99.90
19878;DHT22;10101;52.204;9.910;2023-02-18T03:46:56;7.30;99.90
19878;DHT22;10101;52.204;9.910;2023-02-18T03:49:23;7.30;99.90
19878;DHT22;10101;52.204;9.910;2023-02-18T03:51:49;7.30;99.90
19878;DHT22;10101;52.204;9.910;2023-02-18T03:54:18;7.30;99.90
19878;DHT22;10101;52.204;9.910;2023-02-18T03:56:44;7.30;99.90
19878;DHT22;10101;52.204;9.910;2023-02-18T03:59:12;7.30;99.90
19878;DHT22;10101;52.204;9.910;2023-02-18T04:01:39;7.40;99.90
19878;DHT22;10101;52.204;9.910;2023-02-18T04:04:06;7.30;99.90
19878;DHT22;10101;52.204;9.910;2023-02-18T04:06:33;7.30;99.90
19878;DHT22;10101;52.204;9.910;2023-02-18T04:09:00;7.20;99.90
19878;DHT22;10101;52.204;9.910;2023-02-18T04:11:34;7.20;99.90
19878;DHT22;10101;52.204;9.910;2023-02-18T04:14:01;7.20;99.90
19878;DHT22;10101;52.204;9.910;2023-02-18T04:16:28;7.20;99.90
19878;DHT22;10101;52.204;9.910;2023-02-18T04:18:55;7.20;99.90
19878;DHT22;10101;52.204;9.910;2023-02-18T04:21:22;7.20;99.90
19878;DHT22;10101;52.204;9.910;2023-02-18T04:23:51;7.30;99.90
19878;DHT22;10101;52.204;9.910;2023-02-18T04:26:18;7.20;99.90
19878;DHT22;10101;52.204;9.910;2023-02-18T04:28:47;7.20;99.90
19878;DHT22;10101;52.204;9.910;2023-02-18T04:31:13;7.10;99.90
19878;DHT22;10101;52.204;9.910;2023-02-18T04:33:40;7.10;99.90
19878;DHT22;10101;52.204;9.910;2023-02-18T04:36:07;7.00;99.90
19878;DHT22;10101;52.204;9.910;2023-02-18T04:38:34;7.00;99.90
19878;DHT22;10101;52.204;9.910;2023-02-18T04:41:01;7.00;99.90
19878;DHT22;10101;52.204;9.910;2023-02-18T04:43:28;6.90;99.90
19878;DHT22;10101;52.204;9.910;2023-02-18T04:45:56;6.80;99.90
19878;DHT22;10101;52.204;9.910;2023-02-18T04:48:22;6.80;99.90
19878;DHT22;10101;52.204;9.910;2023-02-18T04:50:49;6.80;99.90
19878;DHT22;10101;52.204;9.910;2023-02-18T04:53:16;6.70;99.90
19878;DHT22;10101;52.204;9.910;2023-02-18T04:55:43;6.70;99.90
19878;DHT22;10101;52.204;9.910;2023-02-18T04:58:14;6.70;99.90
19878;DHT22;10101;52.204;9.910;2023-02-18T05:00:41;6.60;99.90
19878;DHT22;10101;52.204;9.910;2023-02-18T05:03:09;6.60;99.90
19878;DHT22;10101;52.204;9.910;2023-02-18T05:05:36;6.60;99.90
19878;DHT22;10101;52.204;9.910;2023-02-18T05:08:03;6.60;99.90
19878;DHT22;10101;52.204;9.910;2023-02-18T05:10:30;6.60;99.90
19878;DHT22;10101;52.204;9.910;2023-02-18T05:12:57;6.60;99.90
19878;DHT22;10101;52.204;9.910;2023-02-18T05:15:24;6.60;99.90
19878;DHT22;10101;52.204;9.910;2023-02-18T05:17:50;6.60;99.90
19878;DHT22;10101;52.204;9.910;2023-02-18T05:20:19;6.60;99.90
19878;DHT22;10101;52.204;9.910;2023-02-18T05:22:46;6.60;99.90
19878;DHT22;10101;52.204;9.910;2023-02-18T05:25:13;6.60;99.90
19878;DHT22;10101;52.204;9.910;2023-02-18T05:27:39;6.60;99.90
19878;DHT22;10101;52.204;9.910;2023-02-18T05:30:07;6.70;99.90
19878;DHT22;10101;52.204;9.910;2023-02-18T05:32:34;6.70;99.90
19878;DHT22;10101;52.204;9.910;2023-02-18T05:35:00;6.70;99.90
19878;DHT22;10101;52.204;9.910;2023-02-18T05:37:29;6.80;99.90
19878;DHT22;10101;52.204;9.910;2023-02-18T05:39:55;6.90;99.90
19878;DHT22;10101;52.204;9.910;2023-02-18T05:42:22;7.00;99.90
19878;DHT22;10101;52.204;9.910;2023-02-18T05:44:49;7.10;99.90
19878;DHT22;10101;52.204;9.910;2023-02-18T05:47:16;7.00;99.90
19878;DHT22;10101;52.204;9.910;2023-02-18T05:49:43;7.00;99.90
19878;DHT22;10101;52.204;9.910;2023-02-18T05:52:10;7.00;99.90
19878;DHT22;10101;52.204;9.910;2023-02-18T05:54:39;7.10;99.90
19878;DHT22;10101;52.204;9.910;2023-02-18T05:57:05;7.10;99.90
19878;DHT22;10101;52.204;9.910;2023-02-18T05:59:32;7.10;99.90
19878;DHT22;10101;52.204;9.910;2023-02-18T06:01:59;7.10;99.90
19878;DHT22;10101;52.204;9.910;2023-02-18T06:04:26;7.10;99.90
19878;DHT22;10101;52.204;9.910;2023-02-18T06:06:52;7.10;99.90
19878;DHT22;10101;52.204;9.910;2023-02-18T06:09:19;7.10;99.90
19878;DHT22;10101;52.204;9.910;2023-02-18T06:11:47;7.10;99.90
19878;DHT22;10101;52.204;9.910;2023-02-18T06:14:14;7.20;99.90
19878;DHT22;10101;52.204;9.910;2023-02-18T06:16:41;7.20;99.90
19878;DHT22;10101;52.204;9.910;2023-02-18T06:19:08;7.10;99.90
19878;DHT22;10101;52.204;9.910;2023-02-18T06:21:34;7.20;99.90
19878;DHT22;10101;52.204;9.910;2023-02-18T06:24:01;7.20;99.90
19878;DHT22;10101;52.204;9.910;2023-02-18T06:26:28;7.20;99.90
19878;DHT22;10101;52.204;9.910;2023-02-18T06:28:56;7.30;99.90
19878;DHT22;10101;52.204;9.910;2023-02-18T06:31:23;7.30;99.90
19878;DHT22;10101;52.204;9.910;2023-02-18T06:33:49;7.20;99.90
19878;DHT22;10101;52.204;9.910;2023-02-18T06:36:16;7.20;99.90
19878;DHT22;10101;52.204;9.910;2023-02-18T06:38:44;7.20;99.90
19878;DHT22;10101;52.204;9.910;2023-02-18T06:41:12;7.30;99.90
19878;DHT22;10101;52.204;9.910;2023-02-18T06:43:40;7.40;99.90
19878;DHT22;10101;52.204;9.910;2023-02-18T06:46:08;7.40;99.90
19878;DHT22;10101;52.204;9.910;2023-02-18T06:48:35;7.30;99.90
19878;DHT22;10101;52.204;9.910;2023-02-18T06:51:03;7.30;99.90
19878;DHT22;10101;52.204;9.910;2023-02-18T06:53:29;7.30;99.90
19878;DHT22;10101;52.204;9.910;2023-02-18T06:55:56;7.20;99.90
19878;DHT22;10101;52.204;9.910;2023-02-18T06:58:23;7.30;99.90
19878;DHT22;10101;52.204;9.910;2023-02-18T07:00:50;7.30;99.90
19878;DHT22;10101;52.204;9.910;2023-02-18T07:03:18;7.30;99.90
19878;DHT22;10101;52.204;9.910;2023-02-18T07:05:45;7.20;99.90
19878;DHT22;10101;52.204;9.910;2023-02-18T07:08:12;7.20;99.90
19878;DHT22;10101;52.204;9.910;2023-02-18T07:10:38;7.30;99.90
19878;DHT22;10101;52.204;9.910;2023-02-18T07:13:05;7.30;99.90
19878;DHT22;10101;52.204;9.910;2023-02-18T07:15:32;7.20;99.90
19878;DHT22;10101;52.204;9.910;2023-02-18T07:17:59;7.30;99.90
19878;DHT22;10101;52.204;9.910;2023-02-18T07:20:27;7.30;99.90
19878;DHT22;10101;52.204;9.910;2023-02-18T07:22:54;7.40;99.90
19878;DHT22;10101;52.204;9.910;2023-02-18T07:25:21;7.40;99.90
19878;DHT22;10101;52.204;9.910;2023-02-18T07:27:48;7.40;99.90
19878;DHT22;10101;52.204;9.910;2023-02-18T07:30:15;7.50;99.90
19878;DHT22;10101;52.204;9.910;2023-02-18T07:32:41;7.60;99.90
19878;DHT22;10101;52.204;9.910;2023-02-18T07:35:10;8.10;99.90
19878;DHT22;10101;52.204;9.910;2023-02-18T07:37:42;8.30;99.90
19878;DHT22;10101;52.204;9.910;2023-02-18T07:40:12;8.40;99.90
19878;DHT22;10101;52.204;9.910;2023-02-18T07:42:39;8.60;99.90
19878;DHT22;10101;52.204;9.910;2023-02-18T07:45:07;8.60;99.90
19878;DHT22;10101;52.204;9.910;2023-02-18T07:47:34;8.40;99.90
19878;DHT22;10101;52.204;9.910;2023-02-18T07:50:01;8.80;99.90
19878;DHT22;10101;52.204;9.910;2023-02-18T07:52:27;8.80;99.90
19878;DHT22;10101;52.204;9.910;2023-02-18T07:54:55;8.80;99.90
19878;DHT22;10101;52.204;9.910;2023-02-18T07:57:22;8.80;99.90
19878;DHT22;10101;52.204;9.910;2023-02-18T07:59:49;8.90;99.90
19878;DHT22;10101;52.204;9.910;2023-02-18T08:02:18;8.90;99.90
19878;DHT22;10101;52.204;9.910;2023-02-18T08:04:44;9.00;99.90
19878;DHT22;10101;52.204;9.910;2023-02-18T08:07:13;9.00;99.90
19878;DHT22;10101;52.204;9.910;2023-02-18T08:09:40;9.10;99.90
19878;DHT22;10101;52.204;9.910;2023-02-18T08:12:08;9.20;99.90
19878;DHT22;10101;52.204;9.910;2023-02-18T08:14:35;9.20;99.90
19878;DHT22;10101;52.204;9.910;2023-02-18T08:17:02;9.20;99.90
19878;DHT22;10101;52.204;9.910;2023-02-18T08:19:29;9.20;99.90
19878;DHT22;10101;52.204;9.910;2023-02-18T08:21:55;9.30;99.90
19878;DHT22;10101;52.204;9.910;2023-02-18T08:24:26;9.20;99.90
19878;DHT22;10101;52.204;9.910;2023-02-18T08:26:53;9.30;99.90
19878;DHT22;10101;52.204;9.910;2023-02-18T08:29:21;9.30;99.90
19878;DHT22;10101;52.204;9.910;2023-02-18T08:31:47;9.30;99.90
19878;DHT22;10101;52.204;9.910;2023-02-18T08:34:14;9.30;99.90
19878;DHT22;10101;52.204;9.910;2023-02-18T08:36:41;9.30;99.90
19878;DHT22;10101;52.204;9.910;2023-02-18T08:39:07;9.40;99.90
19878;DHT22;10101;52.204;9.910;2023-02-18T08:41:34;9.40;99.90
19878;DHT22;10101;52.204;9.910;2023-02-18T08:44:01;9.40;99.90
19878;DHT22;10101;52.204;9.910;2023-02-18T08:46:29;9.40;99.90
19878;DHT22;10101;52.204;9.910;2023-02-18T08:48:56;9.40;99.90
19878;DHT22;10101;52.204;9.910;2023-02-18T08:51:23;9.40;99.90
19878;DHT22;10101;52.204;9.910;2023-02-18T08:53:50;9.60;99.90
19878;DHT22;10101;52.204;9.910;2023-02-18T08:56:17;9.70;99.90
19878;DHT22;10101;52.204;9.910;2023-02-18T08:58:44;9.90;99.90
19878;DHT22;10101;52.204;9.910;2023-02-18T09:01:12;9.90;99.90
19878;DHT22;10101;52.204;9.910;2023-02-18T09:03:40;9.90;99.90
19878;DHT22;10101;52.204;9.910;2023-02-18T09:06:07;10.00;99.90
19878;DHT22;10101;52.204;9.910;2023-02-18T09:08:34;10.00;99.90
19878;DHT22;10101;52.204;9.910;2023-02-18T09:11:02;10.10;99.90
19878;DHT22;10101;52.204;9.910;2023-02-18T09:13:30;10.10;99.90
19878;DHT22;10101;52.204;9.910;2023-02-18T09:15:58;10.10;99.90
19878;DHT22;10101;52.204;9.910;2023-02-18T09:18:25;10.20;99.90
19878;DHT22;10101;52.204;9.910;2023-02-18T09:20:56;10.20;99.90
19878;DHT22;10101;52.204;9.910;2023-02-18T09:23:24;10.20;99.90
19878;DHT22;10101;52.204;9.910;2023-02-18T09:25:50;10.40;99.90
19878;DHT22;10101;52.204;9.910;2023-02-18T09:28:17;10.30;99.90
19878;DHT22;10101;52.204;9.910;2023-02-18T09:30:44;10.30;99.90
19878;DHT22;10101;52.204;9.910;2023-02-18T09:33:10;10.30;99.90
19878;DHT22;10101;52.204;9.910;2023-02-18T09:35:39;10.50;99.90
19878;DHT22;10101;52.204;9.910;2023-02-18T09:38:08;10.40;99.90
19878;DHT22;10101;52.204;9.910;2023-02-18T09:40:37;10.50;99.90
19878;DHT22;10101;52.204;9.910;2023-02-18T09:43:04;10.60;99.90
19878;DHT22;10101;52.204;9.910;2023-02-18T09:45:32;10.60;99.90
19878;DHT22;10101;52.204;9.910;2023-02-18T09:48:00;10.60;99.90
19878;DHT22;10101;52.204;9.910;2023-02-18T09:50:29;10.60;99.90
19878;DHT22;10101;52.204;9.910;2023-02-18T09:52:58;10.60;99.90
19878;DHT22;10101;52.204;9.910;2023-02-18T09:55:30;10.60;99.90
19878;DHT22;10101;52.204;9.910;2023-02-18T09:58:00;10.60;99.90
19878;DHT22;10101;52.204;9.910;2023-02-18T10:00:31;10.60;99.90
19878;DHT22;10101;52.204;9.910;2023-02-18T10:03:03;10.60;99.90
19878;DHT22;10101;52.204;9.910;2023-02-18T10:05:31;10.60;99.90
19878;DHT22;10101;52.204;9.910;2023-02-18T10:08:01;10.60;99.90
19878;DHT22;10101;52.204;9.910;2023-02-18T10:10:36;10.60;99.90
19878;DHT22;10101;52.204;9.910;2023-02-18T10:13:05;10.60;99.90
19878;DHT22;10101;52.204;9.910;2023-02-18T10:15:36;10.60;99.90
19878;DHT22;10101;52.204;9.910;2023-02-18T10:18:05;10.60;99.90
19878;DHT22;10101;52.204;9.910;2023-02-18T10:20:37;10.50;99.90
19878;DHT22;10101;52.204;9.910;2023-02-18T10:23:04;10.60;99.90
19878;DHT22;10101;52.204;9.910;2023-02-18T10:25:43;10.60;99.90
19878;DHT22;10101;52.204;9.910;2023-02-18T10:28:10;10.70;99.90
19878;DHT22;10101;52.204;9.910;2023-02-18T10:30:42;10.80;99.90
19878;DHT22;10101;52.204;9.910;2023-02-18T10:33:26;11.00;99.90
19878;DHT22;10101;52.204;9.910;2023-02-18T10:36:06;10.90;99.90
19878;DHT22;10101;52.204;9.910;2023-02-18T10:38:40;10.90;99.90
19878;DHT22;10101;52.204;9.910;2023-02-18T10:41:15;10.80;99.90
19878;DHT22;10101;52.204;9.910;2023-02-18T10:43:50;10.90;99.90
19878;DHT22;10101;52.204;9.910;2023-02-18T10:46:28;10.80;99.90
19878;DHT22;10101;52.204;9.910;2023-02-18T10:49:05;10.70;99.90
19878;DHT22;10101;52.204;9.910;2023-02-18T10:51:46;10.70;99.90
19878;DHT22;10101;52.204;9.910;2023-02-18T10:54:13;10.60;99.90
19878;DHT22;10101;52.204;9.910;2023-02-18T10:56:46;10.40;99.90
19878;DHT22;10101;52.204;9.910;2023-02-18T10:59:20;10.30;99.90
19878;DHT22;10101;52.204;9.910;2023-02-18T11:01:54;10.20;99.90
19878;DHT22;10101;52.204;9.910;2023-02-18T11:04:24;10.30;99.90
19878;DHT22;10101;52.204;9.910;2023-02-18T11:06:52;10.30;99.90
19878;DHT22;10101;52.204;9.910;2023-02-18T11:09:29;10.20;99.90
19878;DHT22;10101;52.204;9.910;2023-02-18T11:12:06;10.30;99.90
19878;DHT22;10101;52.204;9.910;2023-02-18T11:14:41;10.40;99.90
19878;DHT22;10101;52.204;9.910;2023-02-18T11:17:15;10.30;99.90
19878;DHT22;10101;52.204;9.910;2023-02-18T11:19:42;10.30;99.90
19878;DHT22;10101;52.204;9.910;2023-02-18T11:22:19;10.30;99.90
19878;DHT22;10101;52.204;9.910;2023-02-18T11:24:46;10.30;99.90
19878;DHT22;10101;52.204;9.910;2023-02-18T11:27:23;10.30;99.90
19878;DHT22;10101;52.204;9.910;2023-02-18T11:29:52;10.20;99.90
19878;DHT22;10101;52.204;9.910;2023-02-18T11:32:20;10.20;99.90
19878;DHT22;10101;52.204;9.910;2023-02-18T11:34:48;10.20;99.90
19878;DHT22;10101;52.204;9.910;2023-02-18T11:37:17;10.10;99.90
19878;DHT22;10101;52.204;9.910;2023-02-18T11:39:46;10.10;99.90
19878;DHT22;10101;52.204;9.910;2023-02-18T11:42:17;10.10;99.90
19878;DHT22;10101;52.204;9.910;2023-02-18T11:44:50;10.10;99.90
19878;DHT22;10101;52.204;9.910;2023-02-18T11:47:23;10.10;99.90
19878;DHT22;10101;52.204;9.910;2023-02-18T11:50:13;10.10;99.90
19878;DHT22;10101;52.204;9.910;2023-02-18T11:52:42;10.00;99.90
19878;DHT22;10101;52.204;9.910;2023-02-18T11:55:15;10.10;99.90
19878;DHT22;10101;52.204;9.910;2023-02-18T11:57:45;10.10;99.90
19878;DHT22;10101;52.204;9.910;2023-02-18T12:00:21;10.10;99.90
19878;DHT22;10101;52.204;9.910;2023-02-18T12:02:49;10.10;99.90
19878;DHT22;10101;52.204;9.910;2023-02-18T12:05:21;9.90;99.90
19878;DHT22;10101;52.204;9.910;2023-02-18T12:07:50;9.80;99.90
19878;DHT22;10101;52.204;9.910;2023-02-18T12:10:22;9.90;99.90
19878;DHT22;10101;52.204;9.910;2023-02-18T12:12:55;9.50;99.90
19878;DHT22;10101;52.204;9.910;2023-02-18T12:15:31;9.70;99.90
19878;DHT22;10101;52.204;9.910;2023-02-18T12:21:07;9.90;99.90
19878;DHT22;10101;52.204;9.910;2023-02-18T12:23:42;9.90;99.90
19878;DHT22;10101;52.204;9.910;2023-02-18T12:26:21;9.90;99.90
19878;DHT22;10101;52.204;9.910;2023-02-18T12:29:15;9.90;99.90
19878;DHT22;10101;52.204;9.910;2023-02-18T12:31:55;9.90;99.90
19878;DHT22;10101;52.204;9.910;2023-02-18T12:34:42;9.80;99.90
19878;DHT22;10101;52.204;9.910;2023-02-18T12:37:29;9.80;99.90
19878;DHT22;10101;52.204;9.910;2023-02-18T12:40:13;9.80;99.90
19878;DHT22;10101;52.204;9.910;2023-02-18T12:42:54;9.70;99.90
19878;DHT22;10101;52.204;9.910;2023-02-18T12:45:43;9.80;99.90
19878;DHT22;10101;52.204;9.910;2023-02-18T12:48:21;9.80;99.90
19878;DHT22;10101;52.204;9.910;2023-02-18T12:51:01;9.70;99.90
19878;DHT22;10101;52.204;9.910;2023-02-18T12:53:46;9.60;99.90
19878;DHT22;10101;52.204;9.910;2023-02-18T12:56:32;9.70;99.90
19878;DHT22;10101;52.204;9.910;2023-02-18T12:59:10;9.70;99.90
19878;DHT22;10101;52.204;9.910;2023-02-18T13:01:45;9.80;99.90
19878;DHT22;10101;52.204;9.910;2023-02-18T13:04:36;9.50;99.90
19878;DHT22;10101;52.204;9.910;2023-02-18T13:07:33;9.60;99.90
19878;DHT22;10101;52.204;9.910;2023-02-18T13:10:19;9.80;99.90
19878;DHT22;10101;52.204;9.910;2023-02-18T13:12:52;9.80;99.90
19878;DHT22;10101;52.204;9.910;2023-02-18T13:15:27;9.90;99.90
19878;DHT22;10101;52.204;9.910;2023-02-18T13:17:57;9.80;99.90
19878;DHT22;10101;52.204;9.910;2023-02-18T13:20:34;9.90;99.90
19878;DHT22;10101;52.204;9.910;2023-02-18T13:23:02;9.90;99.90
19878;DHT22;10101;52.204;9.910;2023-02-18T13:25:34;9.90;99.90
19878;DHT22;10101;52.204;9.910;2023-02-18T13:28:06;9.80;99.90
19878;DHT22;10101;52.204;9.910;2023-02-18T13:30:41;9.90;99.90
19878;DHT22;10101;52.204;9.910;2023-02-18T13:33:15;10.00;99.90
19878;DHT22;10101;52.204;9.910;2023-02-18T13:35:50;10.00;99.90
19878;DHT22;10101;52.204;9.910;2023-02-18T13:38:35;9.90;99.90
19878;DHT22;10101;52.204;9.910;2023-02-18T13:41:10;10.00;99.90
19878;DHT22;10101;52.204;9.910;2023-02-18T13:43:37;10.00;99.90
19878;DHT22;10101;52.204;9.910;2023-02-18T13:46:09;9.90;99.90
19878;DHT22;10101;52.204;9.910;2023-02-18T13:48:42;9.90;99.90
19878;DHT22;10101;52.204;9.910;2023-02-18T13:51:13;9.90;99.90
19878;DHT22;10101;52.204;9.910;2023-02-18T13:53:42;9.90;99.90
19878;DHT22;10101;52.204;9.910;2023-02-18T13:56:19;9.90;99.90
19878;DHT22;10101;52.204;9.910;2023-02-18T13:58:49;10.00;99.90
19878;DHT22;10101;52.204;9.910;2023-02-18T14:01:22;10.00;99.90
19878;DHT22;10101;52.204;9.910;2023-02-18T14:03:58;10.10;99.90
19878;DHT22;10101;52.204;9.910;2023-02-18T14:06:28;10.10;99.90
19878;DHT22;10101;52.204;9.910;2023-02-18T14:09:35;10.20;99.90
19878;DHT22;10101;52.204;9.910;2023-02-18T14:12:27;10.40;99.90
19878;DHT22;10101;52.204;9.910;2023-02-18T14:15:00;10.30;99.90
19878;DHT22;10101;52.204;9.910;2023-02-18T14:17:34;10.20;99.90
19878;DHT22;10101;52.204;9.910;2023-02-18T14:20:27;10.10;99.90
19878;DHT22;10101;52.204;9.910;2023-02-18T14:22:56;10.20;99.90
19878;DHT22;10101;52.204;9.910;2023-02-18T14:25:33;10.20;99.90
19878;DHT22;10101;52.204;9.910;2023-02-18T14:28:02;10.20;99.90
19878;DHT22;10101;52.204;9.910;2023-02-18T14:30:34;10.20;99.90
19878;DHT22;10101;52.204;9.910;2023-02-18T14:33:03;10.00;99.90
19878;DHT22;10101;52.204;9.910;2023-02-18T14:35:34;10.00;99.90
19878;DHT22;10101;52.204;9.910;2023-02-18T14:38:30;10.30;99.90
19878;DHT22;10101;52.204;9.910;2023-02-18T14:41:31;9.90;99.90
19878;DHT22;10101;52.204;9.910;2023-02-18T14:44:11;9.70;99.90
19878;DHT22;10101;52.204;9.910;2023-02-18T14:46:52;9.70;99.90
19878;DHT22;10101;52.204;9.910;2023-02-18T14:49:36;9.70;99.90
19878;DHT22;10101;52.204;9.910;2023-02-18T14:52:09;9.70;99.90
19878;DHT22;10101;52.204;9.910;2023-02-18T14:54:38;9.80;99.90
19878;DHT22;10101;52.204;9.910;2023-02-18T14:57:12;9.80;99.90
19878;DHT22;10101;52.204;9.910;2023-02-18T14:59:41;9.80;99.90
19878;DHT22;10101;52.204;9.910;2023-02-18T15:02:16;9.80;99.90
19878;DHT22;10101;52.204;9.910;2023-02-18T15:04:44;9.70;99.90
19878;DHT22;10101;52.204;9.910;2023-02-18T15:07:11;9.70;99.90
19878;DHT22;10101;52.204;9.910;2023-02-18T15:09:45;9.70;99.90
19878;DHT22;10101;52.204;9.910;2023-02-18T15:12:16;9.70;99.90
19878;DHT22;10101;52.204;9.910;2023-02-18T15:14:44;9.80;99.90
19878;DHT22;10101;52.204;9.910;2023-02-18T15:17:15;10.00;99.90
19878;DHT22;10101;52.204;9.910;2023-02-18T15:19:48;10.10;99.90
19878;DHT22;10101;52.204;9.910;2023-02-18T15:22:17;10.10;99.90
19878;DHT22;10101;52.204;9.910;2023-02-18T15:24:46;10.10;99.90
19878;DHT22;10101;52.204;9.910;2023-02-18T15:27:16;10.10;99.90
19878;DHT22;10101;52.204;9.910;2023-02-18T15:29:42;10.10;99.90
19878;DHT22;10101;52.204;9.910;2023-02-18T15:32:15;10.20;99.90
19878;DHT22;10101;52.204;9.910;2023-02-18T15:34:42;10.20;99.90
19878;DHT22;10101;52.204;9.910;2023-02-18T15:37:11;10.20;99.90
19878;DHT22;10101;52.204;9.910;2023-02-18T15:39:39;10.20;99.90
19878;DHT22;10101;52.204;9.910;2023-02-18T15:42:13;10.20;99.90
19878;DHT22;10101;52.204;9.910;2023-02-18T15:44:45;10.20;99.90
19878;DHT22;10101;52.204;9.910;2023-02-18T15:47:13;10.10;99.90
19878;DHT22;10101;52.204;9.910;2023-02-18T15:49:45;10.10;99.90
19878;DHT22;10101;52.204;9.910;2023-02-18T15:52:12;10.10;99.90
19878;DHT22;10101;52.204;9.910;2023-02-18T15:54:40;10.10;99.90
19878;DHT22;10101;52.204;9.910;2023-02-18T15:57:12;10.10;99.90
19878;DHT22;10101;52.204;9.910;2023-02-18T15:59:45;10.10;99.90
19878;DHT22;10101;52.204;9.910;2023-02-18T16:02:17;10.10;99.90
19878;DHT22;10101;52.204;9.910;2023-02-18T16:04:47;10.10;99.90
19878;DHT22;10101;52.204;9.910;2023-02-18T16:07:22;10.10;99.90
19878;DHT22;10101;52.204;9.910;2023-02-18T16:09:49;10.10;99.90
19878;DHT22;10101;52.204;9.910;2023-02-18T16:12:25;10.10;99.90